Time;durP1;ratioP1;P1;durP2;ratioP2;P2;SDS_P1;SDS_P2;PMS_P1;PMS_P2;Temp;Humidity;BMP_temperature;BMP_pressure;BME280_temperature;BME280_humidity;BME280_pressure;Samples;Min_cycle;Max_cycle;Signal;HPM_P1;HPM_P2
2023/08/19 00:01:05;;;;;;;29.80;24.90;;;20.90;99.90;;;;;;5061019;28;20499;-70
2023/08/19 00:03:32;;;;;;;26.52;23.60;;;20.90;99.90;;;;;;5010518;28;88806;-71
2023/08/19 00:06:06;;;;;;;27.50;23.55;;;20.80;99.90;;;;;;5066100;28;20520;-70
2023/08/19 00:08:33;;;;;;;27.13;24.20;;;20.80;99.90;;;;;;5016546;28;154123;-72
2023/08/19 00:10:59;;;;;;;29.20;24.73;;;20.90;99.90;;;;;;5063505;28;20068;-71
2023/08/19 00:13:25;;;;;;;28.98;23.30;;;20.80;99.90;;;;;;5029322;28;204348;-71
2023/08/19 00:15:51;;;;;;;27.13;22.98;;;20.80;99.90;;;;;;5061171;28;20056;-73
2023/08/19 00:18:17;;;;;;;28.40;23.23;;;20.80;99.90;;;;;;5018279;28;149640;-72
2023/08/19 00:20:44;;;;;;;26.17;23.00;;;20.80;99.90;;;;;;5064274;28;20060;-71
2023/08/19 00:23:10;;;;;;;27.25;22.58;;;20.80;99.90;;;;;;5029396;28;87279;-71
2023/08/19 00:25:36;;;;;;;27.30;24.10;;;20.80;99.90;;;;;;5066346;28;20044;-72
2023/08/19 00:28:04;;;;;;;24.75;21.48;;;20.80;99.90;;;;;;5010590;28;208483;-71
2023/08/19 00:30:30;;;;;;;26.10;21.35;;;20.80;99.90;;;;;;5059198;28;20053;-71
2023/08/19 00:32:56;;;;;;;27.83;22.30;;;20.80;99.90;;;;;;5005789;28;63452;-71
2023/08/19 00:35:22;;;;;;;30.75;23.63;;;20.70;99.90;;;;;;5029025;28;20511;-73
2023/08/19 00:37:48;;;;;;;23.83;21.10;;;20.70;99.90;;;;;;5010977;28;133365;-72
2023/08/19 00:40:15;;;;;;;26.90;23.58;;;20.70;99.90;;;;;;5062545;28;20045;-71
2023/08/19 00:42:41;;;;;;;28.55;22.65;;;20.70;99.90;;;;;;5020333;28;131900;-73
2023/08/19 00:45:09;;;;;;;28.08;23.33;;;20.70;99.90;;;;;;5062808;28;20465;-73
2023/08/19 00:47:35;;;;;;;23.60;21.02;;;20.60;99.90;;;;;;5023789;28;112101;-71
2023/08/19 00:50:07;;;;;;;26.77;22.23;;;20.60;99.90;;;;;;5061890;28;20049;-72
2023/08/19 00:52:34;;;;;;;27.02;23.15;;;20.60;99.90;;;;;;5002520;28;136687;-73
2023/08/19 00:55:01;;;;;;;24.73;21.55;;;20.60;99.90;;;;;;5036549;28;20056;-72
2023/08/19 00:57:27;;;;;;;26.10;23.30;;;20.50;99.90;;;;;;5020167;28;116978;-72
2023/08/19 00:59:53;;;;;;;23.83;21.25;;;20.50;99.90;;;;;;5060834;28;20447;-72
2023/08/19 01:02:19;;;;;;;23.65;20.90;;;20.50;99.90;;;;;;5012949;28;62010;-72
2023/08/19 01:04:46;;;;;;;24.27;20.65;;;20.50;99.90;;;;;;5038993;28;20053;-73
2023/08/19 01:07:28;;;;;;;27.25;23.15;;;20.50;99.90;;;;;;4993020;28;216707;-72
2023/08/19 01:10:03;;;;;;;22.08;19.60;;;20.40;99.90;;;;;;5049978;28;20059;-71
2023/08/19 01:12:34;;;;;;;26.25;21.38;;;20.40;99.90;;;;;;5005630;28;102087;-71
2023/08/19 01:15:13;;;;;;;23.65;20.17;;;20.40;99.90;;;;;;5041472;28;20048;-72
2023/08/19 01:17:41;;;;;;;23.48;20.95;;;20.30;99.90;;;;;;5004746;28;193128;-72
2023/08/19 01:20:10;;;;;;;24.73;20.30;;;20.30;99.90;;;;;;5040146;28;20057;-74
2023/08/19 01:22:55;;;;;;;21.05;18.52;;;20.30;99.90;;;;;;4992092;28;249087;-73
2023/08/19 01:25:22;;;;;;;25.75;20.65;;;20.30;99.90;;;;;;5042133;28;20500;-71
2023/08/19 01:27:48;;;;;;;25.40;22.08;;;20.30;99.90;;;;;;5006386;28;156353;-73
2023/08/19 01:30:14;;;;;;;25.83;22.13;;;20.30;99.90;;;;;;5046748;28;20061;-72
2023/08/19 01:32:43;;;;;;;25.70;22.50;;;20.30;99.90;;;;;;4992142;28;247392;-73
2023/08/19 01:35:11;;;;;;;26.02;21.65;;;20.30;99.90;;;;;;5045060;28;20053;-72
2023/08/19 01:37:52;;;;;;;26.60;23.50;;;20.30;99.90;;;;;;5015352;28;203331;-73
2023/08/19 01:40:20;;;;;;;30.52;22.33;;;20.30;99.90;;;;;;5049998;28;20060;-71
2023/08/19 01:42:47;;;;;;;21.63;18.95;;;20.20;99.90;;;;;;4987103;28;222336;-71
2023/08/19 01:45:14;;;;;;;27.25;22.40;;;20.20;99.90;;;;;;5033125;28;20538;-71
2023/08/19 01:47:42;;;;;;;27.10;21.95;;;20.20;99.90;;;;;;4995871;28;51306;-71
2023/08/19 01:50:09;;;;;;;28.17;22.25;;;20.20;99.90;;;;;;5029519;28;20057;-71
2023/08/19 01:52:36;;;;;;;27.05;23.30;;;20.20;99.90;;;;;;4987787;28;178470;-70
2023/08/19 01:55:02;;;;;;;25.27;21.67;;;20.20;99.90;;;;;;5042757;28;20053;-71
2023/08/19 01:57:29;;;;;;;24.95;22.25;;;20.20;99.90;;;;;;4991738;28;48660;-71
2023/08/19 01:59:55;;;;;;;25.83;22.63;;;20.30;99.90;;;;;;5039265;28;20056;-71
2023/08/19 02:02:22;;;;;;;25.45;21.75;;;20.20;99.90;;;;;;4985413;28;211028;-70
2023/08/19 02:04:48;;;;;;;27.33;24.30;;;20.20;99.90;;;;;;5041177;28;20032;-72
2023/08/19 02:07:14;;;;;;;25.40;21.67;;;20.20;99.90;;;;;;4999707;28;66558;-72
2023/08/19 02:09:41;;;;;;;27.02;23.10;;;20.30;99.90;;;;;;5035408;28;20053;-72
2023/08/19 02:12:07;;;;;;;24.98;21.60;;;20.30;99.90;;;;;;4999117;28;56023;-71
2023/08/19 02:14:33;;;;;;;28.60;23.15;;;20.30;99.90;;;;;;5043404;28;20053;-71
2023/08/19 02:17:00;;;;;;;25.50;22.00;;;20.30;99.90;;;;;;5000196;28;97146;-71
2023/08/19 02:19:26;;;;;;;29.35;23.48;;;20.30;99.90;;;;;;5055459;28;20048;-72
2023/08/19 02:21:52;;;;;;;24.50;20.92;;;20.30;99.90;;;;;;5029383;28;20056;-71
2023/08/19 02:24:18;;;;;;;26.45;21.85;;;20.30;99.90;;;;;;5041740;28;212191;-71
2023/08/19 02:26:44;;;;;;;25.85;21.95;;;20.30;99.90;;;;;;5032223;28;20053;-71
2023/08/19 02:29:10;;;;;;;25.60;20.13;;;20.30;99.90;;;;;;5054336;28;221746;-71
2023/08/19 02:31:37;;;;;;;27.42;22.65;;;20.30;99.90;;;;;;5036075;28;20640;-70
2023/08/19 02:34:04;;;;;;;31.48;23.65;;;20.30;99.90;;;;;;5044692;28;105395;-71
2023/08/19 02:36:31;;;;;;;30.50;23.42;;;20.30;99.90;;;;;;5059625;28;20486;-71
2023/08/19 02:38:58;;;;;;;30.50;23.08;;;20.30;99.90;;;;;;4999923;28;116758;-72
2023/08/19 02:41:24;;;;;;;26.73;22.08;;;20.30;99.90;;;;;;5048526;28;20052;-70
2023/08/19 02:43:51;;;;;;;27.73;22.58;;;20.30;99.90;;;;;;4999719;28;118259;-72
2023/08/19 02:46:17;;;;;;;27.20;23.17;;;20.30;99.90;;;;;;5061874;28;20060;-70
2023/08/19 02:48:43;;;;;;;28.48;24.02;;;20.30;99.90;;;;;;5003735;28;76214;-72
2023/08/19 02:51:09;;;;;;;29.10;22.30;;;20.30;99.90;;;;;;5054241;28;20526;-72
2023/08/19 02:53:35;;;;;;;27.63;22.73;;;20.30;99.90;;;;;;4982289;28;143911;-71
2023/08/19 02:56:05;;;;;;;29.23;22.75;;;20.30;99.90;;;;;;5069587;28;20055;-72
2023/08/19 02:58:31;;;;;;;25.23;22.05;;;20.30;99.90;;;;;;5015771;28;59879;-71
2023/08/19 03:00:57;;;;;;;26.88;22.27;;;20.30;99.90;;;;;;5053416;28;20053;-71
2023/08/19 03:03:23;;;;;;;23.80;19.85;;;20.30;99.90;;;;;;5011684;28;94475;-71
2023/08/19 03:05:49;;;;;;;26.33;22.50;;;20.30;99.90;;;;;;5037230;28;20057;-71
2023/08/19 03:08:16;;;;;;;26.23;21.85;;;20.40;99.90;;;;;;5009253;28;166243;-71
2023/08/19 03:10:42;;;;;;;24.83;22.13;;;20.40;99.90;;;;;;5038768;28;20060;-72
2023/08/19 03:13:08;;;;;;;26.33;21.13;;;20.30;99.90;;;;;;4995935;28;206037;-71
2023/08/19 03:15:37;;;;;;;24.58;21.58;;;20.40;99.90;;;;;;5045865;28;20053;-71
2023/08/19 03:18:03;;;;;;;25.40;21.15;;;20.30;99.90;;;;;;5028060;28;46682;-71
2023/08/19 03:20:29;;;;;;;26.65;20.75;;;20.30;99.90;;;;;;5066152;28;20056;-69
2023/08/19 03:22:55;;;;;;;27.52;20.98;;;20.40;99.90;;;;;;5024939;28;167426;-71
2023/08/19 03:25:22;;;;;;;23.90;19.88;;;20.30;99.90;;;;;;5063164;28;20052;-71
2023/08/19 03:27:48;;;;;;;24.20;21.17;;;20.30;99.90;;;;;;5018759;28;61205;-71
2023/08/19 03:30:14;;;;;;;23.88;20.20;;;20.30;99.90;;;;;;5057134;28;20060;-72
2023/08/19 03:32:40;;;;;;;23.40;20.90;;;20.30;99.90;;;;;;5016485;28;20059;-72
2023/08/19 03:35:07;;;;;;;26.60;20.27;;;20.30;99.90;;;;;;5037078;28;20060;-73
2023/08/19 03:37:33;;;;;;;22.42;19.55;;;20.30;99.90;;;;;;5019670;28;20052;-71
2023/08/19 03:39:59;;;;;;;24.50;21.02;;;20.30;99.90;;;;;;5066530;28;20041;-71
2023/08/19 03:42:25;;;;;;;26.17;19.80;;;20.30;99.90;;;;;;5027999;28;20052;-71
2023/08/19 03:44:51;;;;;;;24.42;19.50;;;20.30;99.90;;;;;;5059448;28;20052;-71
2023/08/19 03:47:18;;;;;;;23.70;19.48;;;20.30;99.90;;;;;;5020552;28;20154;-72
2023/08/19 03:49:44;;;;;;;22.23;19.45;;;20.30;99.90;;;;;;5046620;28;20048;-73
2023/08/19 03:52:10;;;;;;;23.58;19.25;;;20.40;99.90;;;;;;5011547;28;192653;-71
2023/08/19 03:54:36;;;;;;;25.10;19.60;;;20.30;99.90;;;;;;5060153;28;20041;-71
2023/08/19 03:57:02;;;;;;;24.60;19.58;;;20.30;99.90;;;;;;5027275;28;20433;-71
2023/08/19 03:59:28;;;;;;;24.73;18.83;;;20.30;99.90;;;;;;5064812;28;20529;-71
2023/08/19 04:01:54;;;;;;;21.98;18.95;;;20.30;99.90;;;;;;5015276;28;20423;-71
2023/08/19 04:04:20;;;;;;;22.15;18.50;;;20.30;99.90;;;;;;5061101;28;20064;-71
2023/08/19 04:06:46;;;;;;;25.33;18.63;;;20.30;99.90;;;;;;5019245;28;20059;-72
2023/08/19 04:09:12;;;;;;;24.17;18.38;;;20.30;99.90;;;;;;5060288;28;20057;-70
2023/08/19 04:11:39;;;;;;;24.65;17.13;;;20.30;99.90;;;;;;5022836;28;20313;-72
2023/08/19 04:14:08;;;;;;;23.63;17.55;;;20.30;99.90;;;;;;5052345;28;20494;-71
2023/08/19 04:16:37;;;;;;;22.83;16.63;;;20.30;99.90;;;;;;5044694;28;20048;-71
2023/08/19 04:19:03;;;;;;;21.67;17.75;;;20.30;99.90;;;;;;5022690;28;20411;-73
2023/08/19 04:21:29;;;;;;;21.23;17.20;;;20.30;99.90;;;;;;5062274;28;20063;-71
2023/08/19 04:23:55;;;;;;;24.33;15.93;;;20.30;99.90;;;;;;5023979;28;20052;-72
2023/08/19 04:26:22;;;;;;;20.60;16.42;;;20.30;99.90;;;;;;5059962;28;20067;-72
2023/08/19 04:28:48;;;;;;;19.08;16.52;;;20.30;99.90;;;;;;5006180;28;20451;-70
2023/08/19 04:31:14;;;;;;;21.27;16.30;;;20.40;99.90;;;;;;5044616;28;20054;-71
2023/08/19 04:33:40;;;;;;;20.77;16.52;;;20.40;99.90;;;;;;5006120;28;20063;-73
2023/08/19 04:36:06;;;;;;;22.90;15.93;;;20.40;99.90;;;;;;5036268;28;20052;-72
2023/08/19 04:38:32;;;;;;;19.80;16.33;;;20.40;99.90;;;;;;5030497;28;20051;-69
2023/08/19 04:40:59;;;;;;;20.80;16.67;;;20.50;99.90;;;;;;5039223;28;20056;-69
2023/08/19 04:43:27;;;;;;;21.10;15.85;;;20.50;99.90;;;;;;5015041;28;20060;-71
2023/08/19 04:45:54;;;;;;;20.65;16.13;;;20.50;99.90;;;;;;5061513;28;20048;-71
2023/08/19 04:48:21;;;;;;;20.30;16.00;;;20.60;99.90;;;;;;5016532;28;20063;-71
2023/08/19 04:50:49;;;;;;;19.75;15.38;;;20.60;99.90;;;;;;5060495;28;20631;-71
2023/08/19 04:53:15;;;;;;;20.80;15.48;;;20.60;99.90;;;;;;5012907;28;69437;-70
2023/08/19 04:55:41;;;;;;;19.75;15.25;;;20.70;99.90;;;;;;5062906;28;20046;-71
2023/08/19 04:58:07;;;;;;;21.77;16.08;;;20.70;99.90;;;;;;5016856;28;20403;-72
2023/08/19 05:00:33;;;;;;;22.20;14.98;;;20.80;99.90;;;;;;5056975;28;20060;-70
2023/08/19 05:02:59;;;;;;;20.63;14.65;;;20.80;99.90;;;;;;5036827;28;20047;-71
2023/08/19 05:05:25;;;;;;;18.10;13.63;;;20.90;99.90;;;;;;5063378;28;20053;-71
2023/08/19 05:07:52;;;;;;;19.13;13.82;;;21.00;99.90;;;;;;5022320;28;20115;-70
2023/08/19 05:10:18;;;;;;;18.60;13.73;;;21.00;99.90;;;;;;5060492;28;20052;-72
2023/08/19 05:12:44;;;;;;;19.45;12.85;;;21.10;99.90;;;;;;5023131;28;20103;-71
2023/08/19 05:15:12;;;;;;;17.23;13.50;;;21.20;99.90;;;;;;5049804;28;20052;-73
2023/08/19 05:17:38;;;;;;;18.40;12.45;;;21.20;99.90;;;;;;5018354;28;20072;-71
2023/08/19 05:20:06;;;;;;;17.27;12.40;;;21.30;99.90;;;;;;5057575;28;20533;-73
2023/08/19 05:22:32;;;;;;;18.15;12.52;;;21.40;99.90;;;;;;5018904;28;20044;-72
2023/08/19 05:24:58;;;;;;;15.07;11.60;;;21.40;99.90;;;;;;5061872;28;20055;-72
2023/08/19 05:27:24;;;;;;;15.90;11.82;;;21.40;99.90;;;;;;5011048;28;20514;-73
2023/08/19 05:29:51;;;;;;;18.00;11.95;;;21.40;99.90;;;;;;5035390;28;20064;-72
2023/08/19 05:32:18;;;;;;;19.30;11.75;;;21.40;99.90;;;;;;5004752;28;20045;-72
2023/08/19 05:34:44;;;;;;;18.05;11.52;;;21.40;99.90;;;;;;5044775;28;20112;-69
2023/08/19 05:37:10;;;;;;;18.58;11.63;;;21.40;99.90;;;;;;5006548;28;20051;-69
2023/08/19 05:39:36;;;;;;;18.00;10.88;;;21.40;99.90;;;;;;5041310;28;20041;-72
2023/08/19 05:42:03;;;;;;;16.10;10.75;;;21.40;99.90;;;;;;4997172;28;20051;-71
2023/08/19 05:44:29;;;;;;;17.13;11.27;;;21.40;99.90;;;;;;5052256;28;20064;-73
2023/08/19 05:46:55;;;;;;;16.77;10.95;;;21.40;99.90;;;;;;4994108;28;23199;-71
2023/08/19 05:49:21;;;;;;;17.33;10.80;;;21.50;99.90;;;;;;5023441;28;20064;-72
2023/08/19 05:51:47;;;;;;;18.05;11.13;;;21.50;99.90;;;;;;4979023;28;81051;-73
2023/08/19 05:54:13;;;;;;;15.05;10.45;;;21.50;99.90;;;;;;5034040;28;20045;-71
2023/08/19 05:56:39;;;;;;;18.75;10.88;;;21.60;99.90;;;;;;4992231;28;20064;-71
2023/08/19 05:59:06;;;;;;;16.38;10.57;;;21.60;99.90;;;;;;5062033;28;20037;-71
2023/08/19 06:01:32;;;;;;;16.40;10.63;;;21.70;99.90;;;;;;5057210;28;20049;-73
2023/08/19 06:03:58;;;;;;;17.40;10.15;;;21.70;99.90;;;;;;5003845;28;20397;-70
2023/08/19 06:06:24;;;;;;;14.70;10.00;;;21.70;99.90;;;;;;5037152;28;20049;-71
2023/08/19 06:08:50;;;;;;;14.18;10.05;;;21.80;99.90;;;;;;5014150;28;20060;-71
2023/08/19 06:11:16;;;;;;;16.50;10.07;;;21.80;99.90;;;;;;5035524;28;20054;-71
2023/08/19 06:13:42;;;;;;;17.75;9.30;;;21.90;99.90;;;;;;5013119;28;20041;-71
2023/08/19 06:16:09;;;;;;;15.48;10.23;;;21.90;99.90;;;;;;5037498;28;20037;-72
2023/08/19 06:18:35;;;;;;;15.32;9.32;;;22.00;99.90;;;;;;5019251;28;20052;-71
2023/08/19 06:21:03;;;;;;;16.10;9.38;;;22.10;99.90;;;;;;5035720;28;20045;-71
2023/08/19 06:23:29;;;;;;;15.00;9.25;;;22.20;99.90;;;;;;5011994;28;20115;-73
2023/08/19 06:25:55;;;;;;;14.13;9.10;;;22.20;99.90;;;;;;5036921;28;20065;-71
2023/08/19 06:28:21;;;;;;;15.65;8.52;;;22.30;99.90;;;;;;5027439;28;20044;-72
2023/08/19 06:30:48;;;;;;;16.65;8.43;;;22.30;99.90;;;;;;5062267;28;20056;-73
2023/08/19 06:33:15;;;;;;;12.90;8.00;;;22.30;99.90;;;;;;5012170;28;20068;-71
2023/08/19 06:35:48;;;;;;;12.20;7.95;;;22.30;99.90;;;;;;5056679;28;20056;-71
2023/08/19 06:38:23;;;;;;;17.55;8.20;;;22.30;99.90;;;;;;5020088;28;20540;-72
2023/08/19 06:41:09;;;;;;;13.73;8.48;;;22.30;99.90;;;;;;5059544;28;20120;-71
2023/08/19 06:43:38;;;;;;;15.13;8.65;;;22.30;99.90;;;;;;5021588;28;21264;-71
2023/08/19 06:46:05;;;;;;;12.80;8.65;;;22.30;99.90;;;;;;5062377;28;20048;-72
2023/08/19 06:48:33;;;;;;;15.32;8.98;;;22.30;99.90;;;;;;5021695;28;20071;-72
2023/08/19 06:51:01;;;;;;;17.50;8.55;;;22.30;99.90;;;;;;5063686;28;20099;-71
2023/08/19 06:53:28;;;;;;;14.77;8.50;;;22.40;99.90;;;;;;5019554;28;242558;-71
2023/08/19 06:56:01;;;;;;;15.20;8.48;;;22.40;99.90;;;;;;5065086;28;20052;-71
2023/08/19 06:58:31;;;;;;;13.20;7.97;;;22.30;99.90;;;;;;5003078;28;20496;-70
2023/08/19 07:01:02;;;;;;;19.73;8.13;;;22.40;99.90;;;;;;5064236;28;20067;-71
2023/08/19 07:03:33;;;;;;;17.50;7.88;;;22.40;99.90;;;;;;5027287;28;20419;-71
2023/08/19 07:06:00;;;;;;;12.80;8.13;;;22.50;99.90;;;;;;5060406;28;20514;-70
2023/08/19 07:08:30;;;;;;;13.57;7.70;;;22.50;99.90;;;;;;5037526;28;20549;-74
2023/08/19 07:11:00;;;;;;;14.18;7.80;;;22.60;99.90;;;;;;5059103;28;20056;-72
2023/08/19 07:13:28;;;;;;;14.80;7.30;;;22.70;99.90;;;;;;5028331;28;20434;-72
2023/08/19 07:16:03;;;;;;;12.85;7.47;;;22.70;99.90;;;;;;5062538;28;20061;-72
2023/08/19 07:18:38;;;;;;;11.80;7.40;;;22.80;99.90;;;;;;5029476;28;20066;-71
2023/08/19 07:21:10;;;;;;;11.80;6.72;;;22.80;99.90;;;;;;5060126;28;20057;-71
2023/08/19 07:23:39;;;;;;;11.85;6.78;;;22.90;99.90;;;;;;5035441;28;20877;-72
2023/08/19 07:26:05;;;;;;;12.13;6.55;;;23.00;99.90;;;;;;5059911;28;20052;-71
2023/08/19 07:28:32;;;;;;;11.23;6.75;;;23.00;99.90;;;;;;5022910;28;20068;-70
2023/08/19 07:30:58;;;;;;;14.18;7.20;;;23.20;99.90;;;;;;5060472;28;20057;-70
2023/08/19 07:33:24;;;;;;;11.38;6.50;;;23.20;99.90;;;;;;5019835;28;20053;-71
2023/08/19 07:35:51;;;;;;;11.88;6.63;;;23.30;99.90;;;;;;5059916;28;20056;-73
2023/08/19 07:38:17;;;;;;;13.32;6.40;;;23.30;99.90;;;;;;5032041;28;20135;-72
2023/08/19 07:40:43;;;;;;;13.55;6.32;;;23.40;99.90;;;;;;5058978;28;20055;-71
2023/08/19 07:43:09;;;;;;;11.32;5.90;;;23.50;99.90;;;;;;5025486;28;20415;-71
2023/08/19 07:45:35;;;;;;;13.75;6.43;;;23.60;99.90;;;;;;5058555;28;20057;-71
2023/08/19 07:48:01;;;;;;;11.90;6.00;;;23.60;99.90;;;;;;5015839;28;20511;-71
2023/08/19 07:50:28;;;;;;;10.30;5.53;;;23.70;99.90;;;;;;5065045;28;20060;-72
2023/08/19 07:52:55;;;;;;;11.15;5.65;;;23.70;99.90;;;;;;5002974;28;42587;-71
2023/08/19 07:55:21;;;;;;;13.30;5.90;;;23.80;99.90;;;;;;5056400;28;20059;-72
2023/08/19 07:57:47;;;;;;;12.60;5.80;;;23.80;99.90;;;;;;5025068;28;20056;-72
2023/08/19 08:00:13;;;;;;;12.95;5.40;;;23.90;99.90;;;;;;5056789;28;20070;-73
2023/08/19 08:02:39;;;;;;;14.55;5.40;;;24.00;99.90;;;;;;5030310;28;20142;-71
2023/08/19 08:05:06;;;;;;;16.27;5.90;;;24.00;99.90;;;;;;5068055;28;20450;-71
2023/08/19 08:07:32;;;;;;;10.90;5.18;;;24.10;99.90;;;;;;5016740;28;20048;-72
2023/08/19 08:09:58;;;;;;;13.00;5.53;;;24.20;99.90;;;;;;5053661;28;20048;-72
2023/08/19 08:12:25;;;;;;;11.60;5.40;;;24.40;99.90;;;;;;5017401;28;20056;-71
2023/08/19 08:14:51;;;;;;;12.93;5.30;;;24.40;99.90;;;;;;5059372;28;20051;-72
2023/08/19 08:17:17;;;;;;;10.90;5.25;;;24.50;99.90;;;;;;5026871;28;20063;-72
2023/08/19 08:19:43;;;;;;;12.43;5.35;;;24.50;99.90;;;;;;5067575;28;20057;-71
2023/08/19 08:22:09;;;;;;;9.85;5.28;;;24.50;99.90;;;;;;5019296;28;20052;-71
2023/08/19 08:24:35;;;;;;;11.18;5.10;;;24.50;99.90;;;;;;5064930;28;20053;-72
2023/08/19 08:27:01;;;;;;;13.85;4.80;;;24.50;99.90;;;;;;5026598;28;20064;-70
2023/08/19 08:29:27;;;;;;;12.45;5.75;;;24.60;99.90;;;;;;5066645;28;20057;-71
2023/08/19 08:31:53;;;;;;;11.82;5.13;;;24.70;99.90;;;;;;5021343;28;20052;-71
2023/08/19 08:34:19;;;;;;;11.52;5.10;;;24.80;99.90;;;;;;5043417;28;20057;-73
2023/08/19 08:36:46;;;;;;;11.27;4.65;;;24.90;99.90;;;;;;5000384;28;20057;-73
2023/08/19 08:39:12;;;;;;;11.32;4.47;;;24.90;99.90;;;;;;5051242;28;20056;-71
2023/08/19 08:41:39;;;;;;;12.77;4.97;;;25.10;99.90;;;;;;5010785;28;20045;-72
2023/08/19 08:44:09;;;;;;;11.75;5.30;;;25.20;99.90;;;;;;5039003;28;20046;-70
2023/08/19 08:46:36;;;;;;;10.88;5.07;;;25.30;99.90;;;;;;5021341;28;20057;-70
2023/08/19 08:49:04;;;;;;;11.38;4.55;;;25.40;99.90;;;;;;5019395;28;20507;-73
2023/08/19 08:51:30;;;;;;;9.20;4.53;;;25.60;99.90;;;;;;5038253;28;20072;-73
2023/08/19 08:53:56;;;;;;;11.02;4.32;;;26.10;99.90;;;;;;4983136;28;179116;-72
2023/08/19 08:56:23;;;;;;;11.20;4.63;;;26.90;99.90;;;;;;5040347;28;20064;-72
2023/08/19 08:58:49;;;;;;;12.43;4.53;;;27.40;99.90;;;;;;5016901;28;20075;-70
2023/08/19 09:01:18;;;;;;;10.95;4.20;;;27.80;99.90;;;;;;5036358;28;20066;-72
2023/08/19 09:03:46;;;;;;;11.02;4.57;;;27.90;99.90;;;;;;5033456;28;20047;-71
2023/08/19 09:06:17;;;;;;;11.52;4.50;;;28.00;99.90;;;;;;5030202;28;20057;-72
2023/08/19 09:08:48;;;;;;;8.30;4.00;;;28.30;99.90;;;;;;5013719;28;20055;-71
2023/08/19 09:11:20;;;;;;;12.20;4.40;;;28.70;99.90;;;;;;5052166;28;20045;-72
2023/08/19 09:13:52;;;;;;;13.35;4.80;;;28.70;99.90;;;;;;5016641;28;20067;-72
2023/08/19 09:16:18;;;;;;;13.07;4.72;;;28.60;99.90;;;;;;5034361;28;20423;-69
2023/08/19 09:18:45;;;;;;;13.65;4.90;;;28.30;99.90;;;;;;5021090;28;20051;-70
2023/08/19 09:21:11;;;;;;;14.48;6.53;;;28.20;99.90;;;;;;5035053;28;20049;-69
2023/08/19 09:23:39;;;;;;;12.95;4.93;;;27.70;99.90;;;;;;5000620;28;20047;-70
2023/08/19 09:26:08;;;;;;;10.57;4.30;;;27.60;99.90;;;;;;5040202;28;20071;-69
2023/08/19 09:28:34;;;;;;;11.48;4.70;;;27.60;99.90;;;;;;4986838;28;20056;-69
2023/08/19 09:31:00;;;;;;;14.52;5.38;;;27.60;99.90;;;;;;5037754;28;20403;-70
2023/08/19 09:33:26;;;;;;;10.95;4.70;;;27.60;99.90;;;;;;5010809;28;20775;-69
2023/08/19 09:35:57;;;;;;;11.05;4.70;;;27.60;99.90;;;;;;5041683;28;20064;-70
2023/08/19 09:38:24;;;;;;;13.48;4.95;;;27.50;99.90;;;;;;5028700;28;20044;-72
2023/08/19 09:41:10;;;;;;;12.38;4.43;;;27.50;99.90;;;;;;5057834;28;20064;-69
2023/08/19 09:43:39;;;;;;;11.57;5.00;;;27.40;99.90;;;;;;5035904;28;20573;-69
2023/08/19 09:46:06;;;;;;;9.75;4.70;;;27.50;99.90;;;;;;5057711;28;20594;-71
2023/08/19 09:48:33;;;;;;;12.13;4.97;;;27.70;99.90;;;;;;5003468;28;20622;-69
2023/08/19 09:50:59;;;;;;;14.02;5.07;;;27.80;99.90;;;;;;5037410;28;20585;-72
2023/08/19 09:53:32;;;;;;;17.35;5.13;;;27.80;99.90;;;;;;5001149;28;61559;-70
2023/08/19 09:55:58;;;;;;;10.85;4.63;;;27.80;99.90;;;;;;5051824;28;20048;-70
2023/08/19 09:58:25;;;;;;;13.07;5.05;;;27.70;99.90;;;;;;5022328;28;20560;-70
2023/08/19 10:00:51;;;;;;;10.25;4.60;;;27.60;99.90;;;;;;5056443;28;20060;-70
2023/08/19 10:03:18;;;;;;;11.32;5.05;;;27.50;99.90;;;;;;5016806;28;20687;-70
2023/08/19 10:05:48;;;;;;;14.60;5.07;;;27.30;99.90;;;;;;5055713;28;20053;-71
2023/08/19 10:08:18;;;;;;;;;;;27.10;99.90;;;;;;5031406;28;20040;-72
2023/08/19 10:10:46;;;;;;;15.27;5.32;;;26.80;99.90;;;;;;5059321;28;19924;-71
2023/08/19 10:13:13;;;;;;;10.77;5.55;;;26.50;99.90;;;;;;5014618;28;20049;-73
2023/08/19 10:15:41;;;;;;;12.27;6.00;;;26.20;99.90;;;;;;5063988;28;20064;-72
2023/08/19 10:18:13;;;;;;;14.65;6.10;;;25.90;99.90;;;;;;5009598;28;20047;-72
2023/08/19 10:20:40;;;;;;;13.43;6.50;;;25.90;99.90;;;;;;5079316;28;20068;-72
2023/08/19 10:23:08;;;;;;;14.20;6.43;;;25.80;99.90;;;;;;5026908;28;20502;-72
2023/08/19 10:25:35;;;;;;;11.55;6.20;;;25.70;99.90;;;;;;5059857;28;20399;-72
2023/08/19 10:28:11;;;;;;;14.35;6.53;;;25.70;99.90;;;;;;5024446;28;20435;-73
2023/08/19 10:30:37;;;;;;;18.10;7.15;;;25.70;99.90;;;;;;5062214;28;20044;-72
2023/08/19 10:33:24;;;;;;;16.25;7.63;;;25.70;99.90;;;;;;5021842;28;20060;-73
2023/08/19 10:36:04;;;;;;;13.15;7.20;;;25.70;99.90;;;;;;5065228;28;20052;-74
2023/08/19 10:38:43;;;;;;;13.57;6.53;;;25.60;99.90;;;;;;5018356;28;20052;-74
2023/08/19 10:41:20;;;;;;;13.55;6.68;;;25.70;99.90;;;;;;5065432;28;20052;-73
2023/08/19 10:43:48;;;;;;;12.68;7.72;;;25.60;99.90;;;;;;5023275;28;20044;-73
2023/08/19 10:46:18;;;;;;;16.33;7.55;;;25.60;99.90;;;;;;5045939;28;20084;-73
2023/08/19 10:48:46;;;;;;;13.98;8.10;;;25.50;99.90;;;;;;4992587;28;20056;-74
2023/08/19 10:51:12;;;;;;;15.32;7.68;;;25.50;99.90;;;;;;5070731;28;20087;-73
2023/08/19 10:53:47;;;;;;;13.02;7.97;;;25.40;99.90;;;;;;5014124;28;232770;-73
2023/08/19 10:56:13;;;;;;;15.20;7.90;;;25.40;99.90;;;;;;5063050;28;20045;-73
2023/08/19 10:58:41;;;;;;;14.60;7.95;;;25.40;99.90;;;;;;5031692;28;20055;-72
2023/08/19 11:01:08;;;;;;;16.60;8.50;;;25.40;99.90;;;;;;5065457;28;20426;-72
2023/08/19 11:03:34;;;;;;;18.58;8.30;;;25.50;99.90;;;;;;5041145;28;20052;-72
2023/08/19 11:06:06;;;;;;;12.88;7.68;;;25.60;99.90;;;;;;5056468;28;20060;-72
2023/08/19 11:08:45;;;;;;;14.00;7.90;;;25.90;99.90;;;;;;5025571;28;20059;-71
2023/08/19 11:11:21;;;;;;;14.57;7.88;;;26.20;99.90;;;;;;5056449;28;20060;-71
2023/08/19 11:13:47;;;;;;;14.90;7.30;;;26.40;99.90;;;;;;5017049;28;20037;-71
2023/08/19 11:16:13;;;;;;;14.70;8.02;;;26.60;99.90;;;;;;5062489;28;20056;-71
2023/08/19 11:18:41;;;;;;;15.38;8.10;;;26.90;99.90;;;;;;5030791;28;20756;-70
2023/08/19 11:21:07;;;;;;;17.48;7.43;;;27.20;99.90;;;;;;5064452;28;20060;-70
2023/08/19 11:23:33;;;;;;;17.58;8.10;;;27.50;99.90;;;;;;5031915;28;20048;-71
2023/08/19 11:26:00;;;;;;;14.77;7.30;;;28.00;99.90;;;;;;5061805;28;20057;-71
2023/08/19 11:28:26;;;;;;;12.00;7.45;;;28.30;99.90;;;;;;5022272;28;20067;-71
2023/08/19 11:30:52;;;;;;;14.02;8.20;;;28.40;99.90;;;;;;5061125;28;20606;-71
2023/08/19 11:33:19;;;;;;;13.15;8.40;;;28.00;99.90;;;;;;5035473;28;20045;-71
2023/08/19 11:35:46;;;;;;;16.75;9.38;;;28.00;99.90;;;;;;5057319;28;20045;-71
2023/08/19 11:38:16;;;;;;;13.32;9.20;;;27.80;99.90;;;;;;5041472;28;20454;-72
2023/08/19 11:40:43;;;;;;;17.83;9.93;;;27.80;99.90;;;;;;5061204;28;20041;-71
2023/08/19 11:43:11;;;;;;;16.17;9.60;;;28.00;99.90;;;;;;5024309;28;20040;-71
2023/08/19 11:45:38;;;;;;;15.02;9.45;;;28.40;99.90;;;;;;5062177;28;20057;-71
2023/08/19 11:48:12;;;;;;;18.42;11.82;;;28.90;99.90;;;;;;5020549;28;20507;-70
2023/08/19 11:50:44;;;;;;;16.15;11.63;;;28.80;99.90;;;;;;5061395;28;20056;-70
2023/08/19 11:53:21;;;;;;;17.23;12.73;;;28.70;99.90;;;;;;5013848;28;227502;-71
2023/08/19 11:55:56;;;;;;;18.45;11.60;;;28.50;99.90;;;;;;5064611;28;20612;-71
2023/08/19 11:58:22;;;;;;;17.95;12.80;;;28.40;99.90;;;;;;5041595;28;20049;-71
2023/08/19 12:00:48;;;;;;;16.23;13.50;;;28.30;99.90;;;;;;5059659;28;20087;-74
2023/08/19 12:03:16;;;;;;;17.45;13.65;;;27.90;99.90;;;;;;5039584;28;20063;-71
2023/08/19 12:05:44;;;;;;;17.00;13.20;;;27.90;99.90;;;;;;5063322;28;20056;-70
2023/08/19 12:08:32;;;;;;;18.58;13.05;;;27.80;99.90;;;;;;5035051;28;20048;-71
2023/08/19 12:10:59;;;;;;;20.23;12.52;;;27.80;99.90;;;;;;5060897;28;20068;-70
2023/08/19 12:13:28;;;;;;;23.30;13.57;;;27.70;99.90;;;;;;5036551;28;20048;-70
2023/08/19 12:15:55;;;;;;;19.42;13.65;;;27.60;99.90;;;;;;5062616;28;20044;-71
2023/08/19 12:18:22;;;;;;;23.00;18.33;;;27.60;99.90;;;;;;5039177;28;20044;-73
2023/08/19 12:20:50;;;;;;;26.50;22.05;;;27.40;99.90;;;;;;5062810;28;20051;-72
2023/08/19 12:23:16;;;;;;;31.30;27.70;;;27.10;99.90;;;;;;5034008;28;20142;-71
2023/08/19 12:25:53;;;;;;;34.53;26.85;;;26.90;99.90;;;;;;5061555;28;20521;-70
2023/08/19 12:28:20;;;;;;;24.52;18.20;;;26.70;99.90;;;;;;5037899;28;20502;-74
2023/08/19 12:30:47;;;;;;;17.70;10.93;;;26.40;99.90;;;;;;5059780;28;20503;-72
2023/08/19 12:33:14;;;;;;;19.02;10.50;;;26.10;99.90;;;;;;5008452;28;20084;-72